アトランタ の空港の天気 - METARとTAF

ハーツフィールド・ジャクソン・アトランタ国際空港 ( KATL / ATL ) - アメリカ ジョージア州アトランタ
飛行場実況気象(Metar)
観測時間11/22 07:52 EST (11/22 12:52 UTC)
風向・風速北西 5m/s
視程10km以上
天気現象
少しの雲 雲底高度 6100m
気温8.9℃
湿度86%
気圧1017.3hPa
METARKATL 221252Z 32009KT 10SM FEW200 09/07 A3004 RMK AO2 SLP173 T00890067
過去の天気等 Google飛行場航空写真 Wunderground天気予報

過去48時間のMETAR

飛行場予報(TAF)
発表時間: 11/22 06:20 EST (11/22 11:20 UTC)
予報対象時間: 22日7時 EST ~ 23日13時 EST
風向・風速北西 5m/s
視程10km以上
少しの雲 雲底高度 7,620m
22日9時 EST から
風向・風速北北西 6m/s 瞬間風速 9m/s
視程10km以上
少しの雲 雲底高度 7,620m
22日17時 EST から
風向・風速北北西 4m/s
視程10km以上
全天の4割程度の雲 雲底高度 7,620m
23日1時 EST から
風向・風速北北東 3m/s
視程10km以上
全天の8割程度の雲 雲底高度 1,070m
23日5時 EST から
風向・風速東北東 4m/s
視程10km以上
全天の8割程度の雲 雲底高度 1,070m
KATL 221120Z 2212/2318 32009KT P6SM FEW250
FM221400 34012G18KT P6SM FEW250
FM222200 34008KT P6SM SCT250
FM230600 02006KT P6SM BKN035
FM231000 06008KT P6SM BKN035